Time;durP1;ratioP1;P1;durP2;ratioP2;P2;SDS_P1;SDS_P2;PMS_P1;PMS_P2;Temp;Humidity;BMP_temperature;BMP_pressure;BME280_temperature;BME280_humidity;BME280_pressure;Samples;Min_cycle;Max_cycle;Signal;HPM_P1;HPM_P2
2023/06/24 00:02:08;;;;;;;9.48;5.85;;;;;;;19.89;83.61;102303.81;5073165;28;20031;-76
2023/06/24 00:04:34;;;;;;;7.40;5.15;;;;;;;19.85;83.66;102298.13;5071001;28;20497;-77
2023/06/24 00:07:00;;;;;;;10.18;6.13;;;;;;;19.89;83.03;102303.81;5076156;28;20239;-76
2023/06/24 00:09:27;;;;;;;6.68;5.93;;;;;;;19.87;82.95;102301.38;5063522;28;20032;-75
2023/06/24 00:11:54;;;;;;;8.07;5.93;;;;;;;19.83;83.94;102294.06;5075171;28;20023;-75
2023/06/24 00:14:21;;;;;;;7.72;6.25;;;;;;;19.61;85.92;102296.91;5064668;28;20038;-75
2023/06/24 00:16:50;;;;;;;8.75;6.55;;;;;;;19.52;86.39;102292.84;5052372;28;20416;-75
2023/06/24 00:19:20;;;;;;;9.93;6.25;;;;;;;19.62;85.39;102294.88;5074412;28;20130;-75
2023/06/24 00:21:45;;;;;;;10.02;7.20;;;;;;;19.58;85.38;102302.56;5069982;28;20110;-77
2023/06/24 00:24:11;;;;;;;10.77;6.22;;;;;;;19.69;83.70;102306.22;5056718;28;20123;-77
2023/06/24 00:26:36;;;;;;;9.95;6.85;;;;;;;19.61;84.85;102305.44;5054736;28;20055;-77
2023/06/24 00:29:02;;;;;;;8.98;6.10;;;;;;;19.57;85.03;102306.66;5074243;28;20035;-75
2023/06/24 00:31:27;;;;;;;9.52;5.72;;;;;;;19.54;85.41;102299.72;5046392;28;20031;-77
2023/06/24 00:33:53;;;;;;;8.88;6.85;;;;;;;19.61;84.39;102305.44;5071057;28;20028;-75
2023/06/24 00:36:19;;;;;;;8.15;5.93;;;;;;;19.44;85.65;102303.41;5083902;28;20471;-77
2023/06/24 00:38:44;;;;;;;10.07;6.50;;;;;;;19.55;85.01;102307.06;5091238;28;20055;-77
2023/06/24 00:41:10;;;;;;;8.70;6.38;;;;;;;19.39;86.32;102306.63;5087213;28;20024;-76
2023/06/24 00:43:35;;;;;;;12.13;6.03;;;;;;;19.48;84.89;102305.03;5093892;28;20028;-76
2023/06/24 00:46:02;;;;;;;9.45;5.57;;;;;;;19.40;86.33;102299.75;5078857;28;20062;-77
2023/06/24 00:48:27;;;;;;;10.25;6.75;;;;;;;19.37;86.71;102301.34;5066720;28;20057;-76
2023/06/24 00:50:52;;;;;;;11.20;5.95;;;;;;;19.38;86.79;102300.16;5092493;28;20300;-76
2023/06/24 00:53:20;;;;;;;10.73;6.65;;;;;;;19.36;86.15;102307.47;5090560;28;20477;-77
2023/06/24 00:55:46;;;;;;;10.27;5.30;;;;;;;19.37;86.30;102312.72;5082306;28;20028;-77
2023/06/24 00:58:16;;;;;;;9.70;6.82;;;;;;;19.36;86.37;102311.09;5069208;28;20064;-77
2023/06/24 01:00:45;;;;;;;8.73;6.07;;;;;;;19.36;86.10;102310.28;5085677;28;20372;-76
2023/06/24 01:03:16;;;;;;;9.10;6.32;;;;;;;19.34;86.35;102319.22;5087848;28;20046;-76
2023/06/24 01:05:44;;;;;;;10.50;7.28;;;;;;;19.42;84.79;102309.47;5090684;28;20031;-77
2023/06/24 01:08:15;;;;;;;9.57;7.05;;;;;;;19.37;85.91;102306.22;5090330;28;20100;-76
2023/06/24 01:10:41;;;;;;;12.80;7.38;;;;;;;19.25;86.50;102310.28;5073079;28;20534;-76
2023/06/24 01:13:07;;;;;;;11.27;8.02;;;;;;;19.24;86.52;102303.78;5090601;28;20131;-76
2023/06/24 01:15:33;;;;;;;9.13;6.80;;;;;;;19.29;85.54;102303.41;5089016;28;20526;-76
2023/06/24 01:18:13;;;;;;;13.80;9.07;;;;;;;19.25;86.62;102293.25;5074018;28;20032;-76
2023/06/24 01:20:47;;;;;;;13.68;8.75;;;;;;;19.21;86.05;102298.91;5089288;28;20039;-76
2023/06/24 01:23:27;;;;;;;11.02;8.13;;;;;;;19.26;86.43;102294.88;5090509;28;20054;-76
2023/06/24 01:26:14;;;;;;;12.77;8.55;;;;;;;19.24;87.09;102291.63;5072541;28;20118;-76
2023/06/24 01:29:06;;;;;;;10.90;8.32;;;;;;;19.15;87.75;102305.41;5092947;28;20157;-76
2023/06/24 01:31:34;;;;;;;15.55;8.68;;;;;;;19.12;88.61;102290.00;5070853;28;20059;-76
2023/06/24 01:34:15;;;;;;;12.90;8.38;;;;;;;19.17;86.90;102294.47;5092477;28;20718;-76
2023/06/24 01:36:47;;;;;;;13.02;8.02;;;;;;;19.16;87.31;102289.97;5087583;28;20062;-76
2023/06/24 01:39:15;;;;;;;10.65;7.72;;;;;;;19.11;87.26;102288.34;5090855;28;20130;-76
2023/06/24 01:41:47;;;;;;;11.50;7.60;;;;;;;19.16;86.82;102282.28;5089264;28;20039;-76
2023/06/24 01:44:17;;;;;;;10.90;7.53;;;;;;;19.15;86.68;102280.66;5094201;28;20037;-76
2023/06/24 01:46:46;;;;;;;11.35;7.75;;;;;;;19.14;87.08;102286.72;5089532;28;20134;-76
2023/06/24 01:49:15;;;;;;;10.35;6.97;;;;;;;19.14;86.65;102287.53;5094076;28;20469;-76
2023/06/24 01:51:43;;;;;;;11.60;7.63;;;;;;;19.06;87.58;102283.91;5089735;28;20507;-76
2023/06/24 01:54:13;;;;;;;9.98;7.40;;;;;;;19.05;87.48;102284.28;5087589;28;20089;-76
2023/06/24 01:56:41;;;;;;;12.05;7.45;;;;;;;19.01;88.54;102283.47;5073330;28;20080;-76
2023/06/24 01:59:08;;;;;;;11.20;7.55;;;;;;;19.04;87.10;102280.66;5087720;28;20036;-76
2023/06/24 02:01:35;;;;;;;12.52;6.88;;;;;;;19.05;87.19;102284.28;5090957;28;20043;-77
2023/06/24 02:04:02;;;;;;;11.02;6.60;;;;;;;18.95;88.35;102274.53;5097242;28;20031;-76
2023/06/24 02:06:29;;;;;;;16.63;8.13;;;;;;;18.91;89.57;102273.75;5091832;28;20034;-76
2023/06/24 02:08:58;;;;;;;11.25;7.35;;;;;;;18.88;88.76;102272.50;5095637;28;20024;-76
2023/06/24 02:11:24;;;;;;;9.55;7.03;;;;;;;18.89;88.61;102276.97;5091744;28;20138;-76
2023/06/24 02:13:51;;;;;;;15.55;7.57;;;;;;;18.97;88.21;102279.81;5074215;28;20033;-75
2023/06/24 02:16:18;;;;;;;13.13;8.13;;;;;;;18.81;91.00;102272.50;5074986;28;20589;-76
2023/06/24 02:18:44;;;;;;;9.50;6.65;;;;;;;18.91;88.68;102278.59;5098968;28;20387;-76
2023/06/24 02:21:11;;;;;;;10.27;6.93;;;;;;;18.84;88.44;102268.03;5093056;28;20472;-76
2023/06/24 02:23:37;;;;;;;12.25;7.97;;;;;;;18.96;87.50;102264.03;5094486;28;20031;-76
2023/06/24 02:26:05;;;;;;;13.30;8.48;;;;;;;18.89;88.28;102271.31;5093146;28;20502;-76
2023/06/24 02:28:32;;;;;;;10.75;7.35;;;;;;;18.95;89.47;102273.72;5088812;28;20074;-76
2023/06/24 02:30:59;;;;;;;12.93;7.45;;;;;;;18.83;89.68;102267.22;5087079;28;20032;-76
2023/06/24 02:33:25;;;;;;;12.15;7.30;;;;;;;18.79;89.63;102266.41;5075376;28;20535;-76
2023/06/24 02:35:50;;;;;;;9.65;6.20;;;;;;;18.76;89.35;102263.53;5094604;28;20044;-76
2023/06/24 02:38:16;;;;;;;13.75;7.30;;;;;;;18.74;90.33;102268.78;5093077;28;20055;-76
2023/06/24 02:40:44;;;;;;;9.40;6.22;;;;;;;18.75;89.80;102265.56;5078427;28;20032;-76
2023/06/24 02:43:10;;;;;;;10.68;6.82;;;;;;;18.79;89.73;102260.75;5091203;28;20067;-76
2023/06/24 02:45:35;;;;;;;11.20;7.72;;;;;;;18.75;90.80;102261.91;5090251;28;20114;-76
2023/06/24 02:48:02;;;;;;;10.20;6.32;;;;;;;18.76;89.42;102261.50;5098533;28;20051;-76
2023/06/24 02:50:28;;;;;;;11.35;7.00;;;;;;;18.76;90.37;102267.16;5091784;28;20515;-76
2023/06/24 02:52:54;;;;;;;10.02;7.35;;;;;;;18.75;88.82;102259.88;5096589;28;20028;-76
2023/06/24 02:55:20;;;;;;;11.52;7.53;;;;;;;18.71;90.14;102264.75;5092509;28;20053;-76
2023/06/24 02:57:47;;;;;;;10.45;7.35;;;;;;;18.59;91.78;102263.06;5096394;28;20453;-76
2023/06/24 03:00:14;;;;;;;11.88;7.15;;;;;;;18.54;91.56;102262.66;5094153;28;20455;-76
2023/06/24 03:02:44;;;;;;;11.25;6.70;;;;;;;18.60;91.17;102263.91;5088363;28;20110;-76
2023/06/24 03:05:10;;;;;;;10.85;7.60;;;;;;;18.61;90.55;102259.84;5091283;28;20032;-76
2023/06/24 03:07:38;;;;;;;13.23;7.38;;;;;;;18.57;91.32;102259.81;5093780;28;20373;-76
2023/06/24 03:10:05;;;;;;;10.55;7.40;;;;;;;18.52;93.08;102248.88;5066213;28;20023;-76
2023/06/24 03:12:31;;;;;;;10.88;6.45;;;;;;;18.61;90.90;102254.16;5090229;28;20417;-76
2023/06/24 03:14:56;;;;;;;11.52;8.40;;;;;;;18.46;92.38;102242.78;5094230;28;20031;-76
2023/06/24 03:17:22;;;;;;;10.52;7.10;;;;;;;18.45;92.08;102252.50;5094631;28;20483;-76
2023/06/24 03:19:47;;;;;;;9.15;7.25;;;;;;;18.55;91.59;102264.28;5096817;28;20028;-76
2023/06/24 03:22:13;;;;;;;12.93;8.25;;;;;;;18.51;92.35;102261.44;5090792;28;20034;-76
2023/06/24 03:24:38;;;;;;;11.68;7.55;;;;;;;18.40;92.35;102261.38;5090556;28;20028;-76
2023/06/24 03:27:04;;;;;;;11.52;7.60;;;;;;;18.47;90.67;102266.28;5087719;28;20713;-75
2023/06/24 03:29:29;;;;;;;10.30;6.70;;;;;;;18.42;92.53;102273.13;5090009;28;20086;-76
2023/06/24 03:31:55;;;;;;;10.73;7.00;;;;;;;18.49;91.16;102276.00;5070186;28;20399;-76
2023/06/24 03:34:20;;;;;;;11.95;8.43;;;;;;;18.43;92.39;102277.59;5089444;28;20114;-76
2023/06/24 03:36:45;;;;;;;10.93;7.63;;;;;;;18.49;91.23;102270.34;5088745;28;20027;-76
2023/06/24 03:39:11;;;;;;;9.13;6.18;;;;;;;18.40;92.53;102271.91;5084511;28;20487;-76
2023/06/24 03:41:36;;;;;;;11.60;7.07;;;;;;;18.41;91.64;102274.34;5088114;28;20532;-75
2023/06/24 03:44:02;;;;;;;10.30;7.20;;;;;;;18.38;92.00;102277.16;5075480;28;20096;-76
2023/06/24 03:46:32;;;;;;;12.63;8.25;;;;;;;18.43;91.43;102274.78;5091498;28;20119;-76
2023/06/24 03:48:58;;;;;;;13.13;8.23;;;;;;;18.27;93.23;102275.09;5096436;28;20143;-75
2023/06/24 03:51:23;;;;;;;12.45;7.53;;;;;;;18.33;91.78;102275.53;5092642;28;20028;-76
2023/06/24 03:53:49;;;;;;;11.65;7.95;;;;;;;18.30;92.31;102262.16;5094595;28;20027;-75
2023/06/24 03:56:14;;;;;;;11.27;8.13;;;;;;;18.29;92.44;102260.53;5092805;28;20039;-76
2023/06/24 03:58:40;;;;;;;12.13;7.63;;;;;;;18.40;91.97;102261.38;5073423;28;20024;-76
2023/06/24 04:01:06;;;;;;;11.20;6.90;;;;;;;18.36;93.29;102260.56;5090888;28;20839;-76
2023/06/24 04:03:31;;;;;;;10.88;7.03;;;;;;;18.45;90.28;102263.84;5087757;28;20066;-76
2023/06/24 04:05:57;;;;;;;12.75;7.97;;;;;;;18.44;92.39;102273.53;5094653;28;20024;-76
2023/06/24 04:08:25;;;;;;;12.23;7.57;;;;;;;18.41;94.29;102265.84;5092721;28;20158;-76
2023/06/24 04:10:50;;;;;;;11.20;6.88;;;;;;;18.35;94.05;102273.13;5093969;28;20038;-76
2023/06/24 04:13:16;;;;;;;10.20;7.55;;;;;;;18.35;93.26;102258.13;5080218;28;20339;-76
2023/06/24 04:15:41;;;;;;;11.45;7.60;;;;;;;18.37;93.63;102267.84;5045259;28;20107;-76
2023/06/24 04:18:08;;;;;;;10.93;7.72;;;;;;;18.44;92.47;102273.53;5074062;28;20032;-76
2023/06/24 04:20:34;;;;;;;11.00;7.10;;;;;;;18.31;95.04;102272.28;5083392;28;20035;-75
2023/06/24 04:23:00;;;;;;;12.25;8.48;;;;;;;18.38;93.32;102265.81;5093285;28;20047;-76
2023/06/24 04:25:25;;;;;;;14.85;7.43;;;;;;;18.41;92.29;102268.69;5089750;28;20107;-76
2023/06/24 04:27:51;;;;;;;11.95;8.02;;;;;;;18.42;94.22;102275.97;5093907;28;20115;-76
2023/06/24 04:30:16;;;;;;;8.85;6.63;;;;;;;18.41;91.63;102265.84;5085133;28;20131;-75
2023/06/24 04:32:41;;;;;;;12.85;8.60;;;;;;;18.38;94.98;102269.47;5089967;28;20074;-76
2023/06/24 04:35:07;;;;;;;12.70;8.15;;;;;;;18.40;92.43;102271.91;5084820;28;20487;-76
2023/06/24 04:37:32;;;;;;;11.40;8.13;;;;;;;18.52;93.03;102277.22;5091155;28;20390;-76
2023/06/24 04:39:58;;;;;;;13.30;8.00;;;;;;;18.54;93.20;102274.00;5100417;28;20028;-76
2023/06/24 04:42:24;;;;;;;13.98;7.32;;;;;;;18.54;92.98;102279.69;5086405;28;20146;-76
2023/06/24 04:44:50;;;;;;;11.13;7.38;;;;;;;18.46;94.01;102281.66;5067500;28;20035;-75
2023/06/24 04:47:17;;;;;;;11.43;7.43;;;;;;;18.53;91.37;102286.53;5091281;28;20199;-76
2023/06/24 04:49:43;;;;;;;13.38;7.97;;;;;;;18.62;93.80;102289.84;5075371;28;20047;-76
2023/06/24 04:52:10;;;;;;;11.57;6.93;;;;;;;18.64;91.11;102291.06;5094015;28;20487;-76
2023/06/24 04:54:35;;;;;;;15.10;9.00;;;;;;;18.68;91.94;102285.41;5090419;28;20050;-76
2023/06/24 04:57:01;;;;;;;12.90;8.43;;;;;;;18.60;92.54;102293.06;5073849;28;20024;-75
2023/06/24 04:59:26;;;;;;;11.32;7.38;;;;;;;18.75;92.52;102291.09;5087655;28;20114;-75
2023/06/24 05:01:51;;;;;;;11.68;7.57;;;;;;;18.77;92.07;102300.00;5084261;28;20506;-75
2023/06/24 05:04:17;;;;;;;12.18;7.25;;;;;;;18.79;91.53;102294.78;5086622;28;20047;-76
2023/06/24 05:06:42;;;;;;;11.20;7.30;;;;;;;18.86;90.15;102299.66;5085358;28;20028;-76
2023/06/24 05:09:10;;;;;;;10.63;7.15;;;;;;;18.84;92.32;102296.41;5068790;28;20367;-76
2023/06/24 05:11:35;;;;;;;11.32;7.68;;;;;;;18.76;92.79;102301.22;5089567;28;20032;-77
2023/06/24 05:14:01;;;;;;;15.85;10.45;;;;;;;18.78;99.43;102295.97;5090988;28;20020;-76
2023/06/24 05:16:26;;;;;;;14.05;9.73;;;;;;;18.85;98.11;102304.53;5090757;28;20024;-76
2023/06/24 05:18:51;;;;;;;14.98;10.35;;;;;;;18.73;97.51;102290.69;5090112;28;20024;-76
2023/06/24 05:21:17;;;;;;;13.98;9.48;;;;;;;18.74;99.63;102298.00;5067591;28;20480;-76
2023/06/24 05:23:42;;;;;;;15.10;9.05;;;;;;;18.76;98.32;102292.69;5089281;28;20055;-76
2023/06/24 05:26:08;;;;;;;16.83;9.80;;;;;;;18.83;98.20;102298.44;5070935;28;20112;-76
2023/06/24 05:28:33;;;;;;;14.18;8.90;;;;;;;18.88;97.41;102298.03;5085689;28;20036;-76
2023/06/24 05:30:59;;;;;;;14.85;8.60;;;;;;;19.01;95.19;102294.81;5083272;28;20034;-76
2023/06/24 05:33:24;;;;;;;17.35;8.88;;;;;;;19.01;95.04;102297.66;5088056;28;20052;-76
2023/06/24 05:35:50;;;;;;;14.95;9.02;;;;;;;19.02;94.65;102296.47;5089942;28;20028;-75
2023/06/24 05:38:16;;;;;;;15.70;7.70;;;;;;;19.11;89.53;102288.34;5087148;28;20417;-76
2023/06/24 05:40:41;;;;;;;11.57;6.97;;;;;;;19.12;88.91;102287.16;5089848;28;20046;-75
2023/06/24 05:43:06;;;;;;;11.60;7.50;;;;;;;19.20;91.31;102288.78;5085661;28;20035;-75
2023/06/24 05:45:32;;;;;;;12.13;6.50;;;;;;;19.21;90.24;102284.72;5085228;28;20024;-76
2023/06/24 05:47:57;;;;;;;10.80;7.22;;;;;;;19.26;90.24;102295.66;5066234;28;20499;-76
2023/06/24 05:50:22;;;;;;;11.27;6.85;;;;;;;19.32;90.82;102298.13;5081214;28;20497;-76
2023/06/24 05:52:48;;;;;;;12.00;6.97;;;;;;;19.32;89.96;102293.25;5078972;28;20035;-76
2023/06/24 05:55:16;;;;;;;12.82;7.65;;;;;;;19.41;89.94;102295.69;5088759;28;20114;-76
2023/06/24 05:57:41;;;;;;;10.35;6.63;;;;;;;19.44;86.98;102292.06;5085738;28;20024;-75
2023/06/24 06:00:07;;;;;;;10.25;6.00;;;;;;;19.47;88.66;102285.53;5087324;28;20729;-75
2023/06/24 06:02:32;;;;;;;12.80;6.63;;;;;;;19.59;88.60;102296.50;5085992;28;20093;-75
2023/06/24 06:04:58;;;;;;;10.80;6.50;;;;;;;19.65;86.57;102286.34;5086502;28;20032;-76
2023/06/24 06:07:23;;;;;;;10.40;6.75;;;;;;;19.69;86.85;102290.00;5070097;28;20035;-76
2023/06/24 06:09:49;;;;;;;9.52;6.30;;;;;;;19.80;87.12;102289.22;5075247;28;20028;-75
2023/06/24 06:12:14;;;;;;;10.35;6.60;;;;;;;19.91;85.52;102284.31;5089807;28;20032;-76
2023/06/24 06:14:39;;;;;;;10.95;5.93;;;;;;;19.89;85.36;102281.88;5087029;28;20566;-76
2023/06/24 06:17:05;;;;;;;13.57;7.05;;;;;;;19.85;84.83;102275.38;5086077;28;20119;-75
2023/06/24 06:19:30;;;;;;;9.82;6.20;;;;;;;20.05;85.33;102284.28;5088005;28;20427;-76
2023/06/24 06:21:56;;;;;;;8.63;5.50;;;;;;;20.07;83.52;102281.84;5087827;28;20059;-76
2023/06/24 06:24:21;;;;;;;9.55;6.13;;;;;;;20.22;84.06;102294.00;5090030;28;20042;-76
2023/06/24 06:26:46;;;;;;;11.98;5.63;;;;;;;20.17;82.12;102285.06;5075265;28;20122;-76
2023/06/24 06:29:12;;;;;;;10.15;5.70;;;;;;;20.33;82.93;102293.94;5094808;28;20031;-76
2023/06/24 06:31:37;;;;;;;8.07;5.47;;;;;;;20.48;82.00;102306.88;5093472;28;20141;-76
2023/06/24 06:34:03;;;;;;;8.93;5.25;;;;;;;20.51;80.79;102306.06;5093038;28;20409;-76
2023/06/24 06:36:28;;;;;;;8.38;4.65;;;;;;;20.33;80.95;102299.63;5095072;28;20444;-76
2023/06/24 06:38:54;;;;;;;11.70;5.20;;;;;;;20.51;79.03;102306.06;5094985;28;20157;-76
2023/06/24 06:41:24;;;;;;;7.68;3.97;;;;;;;20.43;77.65;102301.63;5085356;28;20031;-76
2023/06/24 06:43:50;;;;;;;5.80;3.55;;;;;;;20.50;76.55;102298.75;5091670;28;20044;-76
2023/06/24 06:46:15;;;;;;;5.18;3.38;;;;;;;20.66;76.19;102303.16;5088598;28;20088;-76
2023/06/24 06:48:41;;;;;;;7.55;4.13;;;;;;;20.82;76.02;102303.50;5086733;28;20563;-76
2023/06/24 06:51:06;;;;;;;6.25;3.60;;;;;;;20.82;74.42;102303.50;5081380;28;20458;-76
2023/06/24 06:53:31;;;;;;;7.15;4.35;;;;;;;20.95;73.33;102303.03;5090882;28;20028;-76
2023/06/24 06:55:58;;;;;;;9.23;3.83;;;;;;;21.04;72.15;102309.06;5088233;28;20221;-76
2023/06/24 06:58:24;;;;;;;6.25;3.42;;;;;;;20.86;73.49;102303.50;5091672;28;20024;-76
2023/06/24 07:00:50;;;;;;;6.55;3.40;;;;;;;20.85;73.24;102301.84;5064865;28;20123;-76
2023/06/24 07:03:15;;;;;;;5.63;3.33;;;;;;;20.88;71.45;102307.53;5094815;28;20035;-76
2023/06/24 07:05:40;;;;;;;5.85;3.50;;;;;;;21.03;73.35;102313.16;5091796;28;20434;-77
2023/06/24 07:08:06;;;;;;;6.28;4.05;;;;;;;21.01;73.98;102312.75;5087621;28;20019;-76
2023/06/24 07:10:31;;;;;;;6.65;3.83;;;;;;;21.18;73.07;102322.41;5092891;28;20127;-76
2023/06/24 07:12:58;;;;;;;7.95;3.47;;;;;;;21.26;75.07;102316.25;5091308;28;20028;-76
2023/06/24 07:15:25;;;;;;;6.65;4.00;;;;;;;21.53;73.67;102312.81;5089866;28;20637;-76
2023/06/24 07:17:50;;;;;;;8.07;3.50;;;;;;;21.53;77.94;102315.66;5092113;28;20028;-76
2023/06/24 07:20:15;;;;;;;7.75;4.45;;;;;;;21.60;73.44;102315.59;5073967;28;20020;-76
2023/06/24 07:22:41;;;;;;;8.13;4.70;;;;;;;21.79;72.90;102313.41;5085723;28;20375;-76
2023/06/24 07:25:06;;;;;;;7.20;5.30;;;;;;;22.01;73.26;102311.97;5090315;28;20111;-76
2023/06/24 07:27:32;;;;;;;9.27;4.97;;;;;;;22.19;73.14;102314.63;5082512;28;20122;-76
2023/06/24 07:29:57;;;;;;;6.70;4.82;;;;;;;22.04;69.45;102307.47;5089708;28;20107;-76
2023/06/24 07:32:22;;;;;;;8.43;4.65;;;;;;;22.09;70.62;102318.38;5083417;28;20143;-76
2023/06/24 07:34:48;;;;;;;5.90;3.88;;;;;;;21.85;71.78;102308.88;5094751;28;20531;-76
2023/06/24 07:37:13;;;;;;;13.48;3.97;;;;;;;21.81;67.74;102308.09;5087974;28;20031;-80
2023/06/24 07:39:39;;;;;;;6.50;3.92;;;;;;;21.87;68.96;102309.25;5085938;28;20027;-80
2023/06/24 07:42:04;;;;;;;8.43;3.88;;;;;;;21.81;70.44;102316.66;5076592;28;20107;-80
2023/06/24 07:44:29;;;;;;;6.05;3.58;;;;;;;21.69;70.81;102309.41;5077173;28;20059;-80
2023/06/24 07:46:55;;;;;;;7.28;4.68;;;;;;;21.82;70.93;102306.84;5084444;28;20036;-80
2023/06/24 07:49:20;;;;;;;7.40;3.85;;;;;;;22.16;68.88;102320.34;5090358;28;20031;-80
2023/06/24 07:51:46;;;;;;;6.55;3.83;;;;;;;22.06;68.96;102311.50;5086955;28;20387;-80
2023/06/24 07:54:11;;;;;;;11.15;4.05;;;;;;;21.99;69.26;102305.03;5094056;28;20503;-80
2023/06/24 07:56:37;;;;;;;5.80;3.58;;;;;;;22.21;66.95;102305.66;5071246;28;20041;-81
2023/06/24 07:59:02;;;;;;;4.53;3.47;;;;;;;22.15;68.98;102301.63;5094714;28;20111;-80
2023/06/24 08:01:28;;;;;;;6.60;3.67;;;;;;;22.40;69.18;102305.03;5081194;28;20048;-81
2023/06/24 08:03:53;;;;;;;7.25;3.47;;;;;;;22.32;67.21;102300.63;5090627;28;20076;-81
2023/06/24 08:06:20;;;;;;;4.80;3.15;;;;;;;22.42;66.79;102304.63;5101514;28;20502;-81
2023/06/24 08:08:46;;;;;;;4.50;3.13;;;;;;;22.61;65.73;102301.09;5095687;28;20028;-80
2023/06/24 08:11:12;;;;;;;5.13;2.80;;;;;;;22.69;60.67;102310.38;5093461;28;20480;-81
2023/06/24 08:13:38;;;;;;;3.80;2.50;;;;;;;23.00;60.62;102304.63;5090751;28;20030;-81
2023/06/24 08:16:03;;;;;;;6.60;2.92;;;;;;;23.18;58.92;102296.66;5093878;28;20337;-80
2023/06/24 08:18:29;;;;;;;4.30;2.83;;;;;;;23.31;57.70;102302.56;5079050;28;20020;-80
2023/06/24 08:20:54;;;;;;;3.00;2.38;;;;;;;23.37;55.73;102303.69;5102827;28;20104;-81
2023/06/24 08:23:20;;;;;;;3.50;2.75;;;;;;;23.52;54.65;102307.13;5085581;28;20030;-81
2023/06/24 08:25:45;;;;;;;4.30;2.13;;;;;;;23.39;56.09;102306.13;5079882;28;20027;-81
2023/06/24 08:28:10;;;;;;;9.15;2.85;;;;;;;23.48;54.81;102295.75;5089504;28;20426;-81
2023/06/24 08:30:36;;;;;;;4.95;2.42;;;;;;;23.32;56.90;102293.56;5087275;28;20043;-81
2023/06/24 08:33:01;;;;;;;4.05;2.38;;;;;;;23.53;54.15;102297.31;5091249;28;20035;-81
2023/06/24 08:35:27;;;;;;;2.85;2.20;;;;;;;23.45;54.37;102295.81;5089975;28;20107;-81
2023/06/24 08:37:52;;;;;;;3.63;2.22;;;;;;;23.54;53.61;102293.19;5094692;28;20023;-81
2023/06/24 08:40:17;;;;;;;3.63;2.40;;;;;;;23.70;58.47;102301.09;5079121;28;20035;-81
2023/06/24 08:42:43;;;;;;;3.15;2.10;;;;;;;23.62;54.79;102299.63;5088974;28;21477;-81
2023/06/24 08:45:09;;;;;;;2.78;2.05;;;;;;;23.72;53.53;102305.13;5096143;28;20027;-81
2023/06/24 08:47:35;;;;;;;2.85;2.00;;;;;;;24.08;52.21;102303.69;5093748;28;20633;-81
2023/06/24 08:50:07;;;;;;;3.95;2.60;;;;;;;24.21;52.70;102301.00;5094127;28;20033;-81
2023/06/24 08:52:36;;;;;;;5.22;2.67;;;;;;;24.33;52.17;102297.50;5095999;28;20165;-81
2023/06/24 08:55:04;;;;;;;2.63;2.08;;;;;;;24.61;53.57;102298.16;5089334;28;20032;-81
2023/06/24 08:57:29;;;;;;;4.78;3.10;;;;;;;24.49;53.25;102288.19;5091333;28;21340;-81
2023/06/24 08:59:55;;;;;;;6.35;3.25;;;;;;;24.48;54.79;102289.41;5101741;28;20405;-82
2023/06/24 09:02:20;;;;;;;4.75;3.28;;;;;;;24.75;53.13;102298.66;5098333;28;20072;-81
2023/06/24 09:04:46;;;;;;;4.43;2.65;;;;;;;24.66;52.70;102297.63;5069862;28;20403;-79
2023/06/24 09:07:11;;;;;;;4.60;2.88;;;;;;;24.54;56.35;102302.78;5088840;28;20073;-79
2023/06/24 09:09:46;;;;;;;6.15;3.50;;;;;;;24.54;55.67;102297.06;5078038;28;20061;-78
2023/06/24 09:12:14;;;;;;;5.80;3.50;;;;;;;24.91;53.28;102295.00;5094431;28;20114;-78
2023/06/24 09:14:40;;;;;;;5.68;3.63;;;;;;;24.67;58.93;102294.34;5090432;28;20034;-78
2023/06/24 09:17:09;;;;;;;4.93;3.50;;;;;;;24.79;53.12;102307.16;5099621;28;20031;-78
2023/06/24 09:19:36;;;;;;;5.00;3.35;;;;;;;24.66;55.00;102294.75;5092248;28;20035;-78
2023/06/24 09:22:06;;;;;;;4.20;2.80;;;;;;;24.61;64.07;102289.56;5080350;28;20093;-78
2023/06/24 09:24:36;;;;;;;5.07;3.50;;;;;;;24.73;54.49;102297.50;5088994;28;20055;-78
2023/06/24 09:27:03;;;;;;;5.60;3.67;;;;;;;24.74;55.71;102296.22;5096242;28;20032;-78
2023/06/24 09:29:35;;;;;;;4.85;3.60;;;;;;;24.77;55.15;102298.19;5097310;28;20038;-78
2023/06/24 09:32:04;;;;;;;5.95;3.83;;;;;;;24.72;56.69;102295.84;5095950;28;20063;-78
2023/06/24 09:34:31;;;;;;;6.65;4.05;;;;;;;24.60;57.10;102287.94;5094355;28;20040;-78
2023/06/24 09:36:57;;;;;;;7.78;4.35;;;;;;;24.62;61.25;102271.94;5076768;28;20036;-78
2023/06/24 09:39:28;;;;;;;4.68;3.45;;;;;;;24.50;62.47;102279.16;5100161;28;20103;-78
2023/06/24 09:41:57;;;;;;;5.88;4.18;;;;;;;24.57;59.80;102280.25;5079474;28;20028;-79
2023/06/24 09:44:23;;;;;;;6.05;4.00;;;;;;;24.57;65.34;102283.91;5073359;28;20027;-78
2023/06/24 09:46:49;;;;;;;11.20;5.30;;;;;;;24.75;57.61;102286.38;5094872;28;20044;-78
2023/06/24 09:49:14;;;;;;;8.25;4.38;;;;;;;24.80;57.71;102282.19;5077009;28;20028;-78
2023/06/24 09:51:43;;;;;;;6.05;4.30;;;;;;;25.22;58.39;102279.59;5076010;28;20594;-78
2023/06/24 09:54:09;;;;;;;5.20;3.80;;;;;;;25.72;56.86;102282.00;5097961;28;20487;-78
2023/06/24 09:56:38;;;;;;;6.15;3.92;;;;;;;25.71;56.58;102277.50;5083131;28;20056;-78
2023/06/24 09:59:05;;;;;;;11.98;5.13;;;;;;;25.42;59.14;102279.50;5094159;28;20028;-77
2023/06/24 10:01:38;;;;;;;5.85;4.25;;;;;;;25.66;57.51;102275.19;5089945;28;20119;-78
2023/06/24 10:04:05;;;;;;;11.68;5.28;;;;;;;25.65;58.86;102273.56;5099653;28;20035;-78
2023/06/24 10:06:33;;;;;;;5.93;4.25;;;;;;;25.79;55.83;102269.53;5080215;28;20019;-79
2023/06/24 10:08:58;;;;;;;8.05;4.32;;;;;;;25.84;57.80;102271.81;5089472;28;20055;-78
2023/06/24 10:11:24;;;;;;;8.38;3.75;;;;;;;26.23;56.00;102269.16;5091100;28;20054;-77
2023/06/24 10:13:50;;;;;;;7.35;4.55;;;;;;;25.77;58.62;102272.03;5076248;28;20035;-79
2023/06/24 10:16:16;;;;;;;6.47;3.67;;;;;;;25.80;56.91;102276.06;5099251;28;20040;-79
2023/06/24 10:18:44;;;;;;;5.80;4.85;;;;;;;25.92;56.40;102272.47;5093511;28;20424;-79
2023/06/24 10:21:10;;;;;;;5.15;3.95;;;;;;;25.83;57.60;102261.63;5100636;28;20066;-79
2023/06/24 10:23:58;;;;;;;5.50;3.90;;;;;;;26.21;55.35;102263.06;5075138;28;20034;-79
2023/06/24 10:26:31;;;;;;;6.70;4.35;;;;;;;26.33;55.40;102268.00;5096343;28;20031;-79
2023/06/24 10:29:06;;;;;;;5.60;3.70;;;;;;;26.41;54.49;102263.69;5075443;28;20027;-78
2023/06/24 10:31:43;;;;;;;8.57;4.28;;;;;;;26.36;55.75;102264.25;5072773;28;20040;-78
2023/06/24 10:34:29;;;;;;;8.35;4.05;;;;;;;26.31;54.33;102261.94;5076009;28;20057;-78
2023/06/24 10:37:02;;;;;;;5.53;4.07;;;;;;;27.03;53.50;102253.97;5094179;28;20028;-78
2023/06/24 10:39:46;;;;;;;5.13;4.03;;;;;;;26.73;53.27;102259.88;5084474;28;20055;-78
2023/06/24 10:42:31;;;;;;;5.00;3.97;;;;;;;26.70;52.36;102257.91;5081391;28;20564;-79
2023/06/24 10:44:59;;;;;;;4.80;3.83;;;;;;;26.54;53.13;102250.16;5091522;28;20028;-76
2023/06/24 10:47:26;;;;;;;4.93;3.60;;;;;;;26.56;54.10;102252.56;5080530;28;20119;-75
2023/06/24 10:49:52;;;;;;;6.53;3.78;;;;;;;26.54;51.95;102253.03;5096457;28;20110;-76
2023/06/24 10:52:22;;;;;;;5.90;3.63;;;;;;;27.09;51.54;102257.88;5067446;28;20024;-78
2023/06/24 10:54:49;;;;;;;4.45;3.40;;;;;;;27.07;51.21;102246.06;5098673;28;20682;-78
2023/06/24 10:57:15;;;;;;;5.45;3.75;;;;;;;27.07;51.41;102257.53;5100091;28;20856;-78
2023/06/24 10:59:47;;;;;;;5.00;4.03;;;;;;;26.95;52.41;102256.31;5089208;28;20031;-78
2023/06/24 11:02:17;;;;;;;7.20;3.92;;;;;;;26.87;51.46;102258.59;5087067;28;20087;-78
2023/06/24 11:04:50;;;;;;;5.43;3.78;;;;;;;27.17;53.18;102256.41;5086294;28;20273;-79
2023/06/24 11:07:18;;;;;;;4.75;3.40;;;;;;;27.43;53.23;102244.88;5092087;28;21209;-79
2023/06/24 11:09:52;;;;;;;4.88;3.75;;;;;;;27.61;51.90;102250.81;5079868;28;20050;-79
2023/06/24 11:12:17;;;;;;;7.22;4.68;;;;;;;27.49;51.00;102246.72;5096119;28;20536;-79
2023/06/24 11:14:43;;;;;;;5.85;3.42;;;;;;;27.66;49.73;102235.03;5087908;28;20036;-79
2023/06/24 11:17:09;;;;;;;4.68;3.60;;;;;;;27.54;51.70;102240.38;5076030;28;20114;-79
2023/06/24 11:19:38;;;;;;;5.40;3.92;;;;;;;27.64;52.21;102232.63;5097894;28;20510;-80
2023/06/24 11:22:04;;;;;;;5.95;3.67;;;;;;;28.21;53.54;102235.50;5083505;28;20386;-80